createdAt,value
2023-05-21T00:01:07.891Z,16.82
2023-05-21T00:03:36.142Z,16.80
2023-05-21T00:06:03.933Z,16.80
2023-05-21T00:08:31.078Z,16.80
2023-05-21T00:10:57.945Z,16.70
2023-05-21T00:13:24.736Z,16.70
2023-05-21T00:15:51.631Z,16.70
2023-05-21T00:18:20.406Z,16.70
2023-05-21T00:20:47.659Z,16.60
2023-05-21T00:23:18.548Z,16.60
2023-05-21T00:25:46.730Z,16.60
2023-05-21T00:28:13.452Z,16.60
2023-05-21T00:30:40.266Z,16.60
2023-05-21T00:33:08.125Z,16.60
2023-05-21T00:35:35.119Z,16.58
2023-05-21T00:38:02.211Z,16.50
2023-05-21T00:40:28.860Z,16.50
2023-05-21T00:42:57.264Z,16.50
2023-05-21T00:45:25.695Z,16.50
2023-05-21T00:47:54.835Z,16.50
2023-05-21T00:50:23.595Z,16.46
2023-05-21T00:52:50.580Z,16.40
2023-05-21T00:55:17.337Z,16.40
2023-05-21T00:57:46.053Z,16.40
2023-05-21T01:00:14.779Z,16.40
2023-05-21T01:02:42.177Z,16.40
2023-05-21T01:05:10.142Z,16.40
2023-05-21T01:07:40.107Z,16.40
2023-05-21T01:10:09.006Z,16.30
2023-05-21T01:12:36.076Z,16.30
2023-05-21T01:15:04.146Z,16.30
2023-05-21T01:17:31.843Z,16.30
2023-05-21T01:19:59.782Z,16.20
2023-05-21T01:22:29.234Z,16.20
2023-05-21T01:24:55.970Z,16.20
2023-05-21T01:27:22.989Z,16.20
2023-05-21T01:29:50.361Z,16.10
2023-05-21T01:32:52.615Z,16.10
2023-05-21T01:35:29.731Z,16.10
2023-05-21T01:38:09.580Z,16.10
2023-05-21T01:40:46.809Z,16.00
2023-05-21T01:43:14.619Z,16.00
2023-05-21T01:45:43.781Z,16.00
2023-05-21T01:48:13.101Z,16.00
2023-05-21T01:50:41.444Z,15.92
2023-05-21T01:53:08.125Z,15.90
2023-05-21T01:55:35.963Z,15.90
2023-05-21T01:58:03.243Z,15.90
2023-05-21T02:00:32.677Z,15.90
2023-05-21T02:02:59.747Z,15.86
2023-05-21T02:05:26.802Z,15.80
2023-05-21T02:07:55.074Z,15.80
2023-05-21T02:10:22.291Z,15.80
2023-05-21T02:12:48.865Z,15.80
2023-05-21T02:15:18.026Z,15.80
2023-05-21T02:17:48.215Z,15.72
2023-05-21T02:20:15.619Z,15.70
2023-05-21T02:22:45.438Z,15.70
2023-05-21T02:25:15.851Z,15.70
2023-05-21T02:27:43.559Z,15.70
2023-05-21T02:30:13.220Z,15.70
2023-05-21T02:32:42.833Z,15.70
2023-05-21T02:35:12.962Z,15.64
2023-05-21T02:37:40.827Z,15.60
2023-05-21T02:40:10.252Z,15.60
2023-05-21T02:42:40.080Z,15.60
2023-05-21T02:45:12.314Z,15.60
2023-05-21T02:47:41.365Z,15.54
2023-05-21T02:50:09.549Z,15.50
2023-05-21T02:52:42.330Z,15.50
2023-05-21T02:55:09.772Z,15.50
2023-05-21T02:57:36.493Z,15.48
2023-05-21T03:00:06.208Z,15.40
2023-05-21T03:02:33.301Z,15.40
2023-05-21T03:05:00.765Z,15.40
2023-05-21T03:07:27.486Z,15.40
2023-05-21T03:09:54.186Z,15.30
2023-05-21T03:12:20.960Z,15.30
2023-05-21T03:14:51.277Z,15.30
2023-05-21T03:17:18.959Z,15.24
2023-05-21T03:19:45.664Z,15.20
2023-05-21T03:22:12.499Z,15.20
2023-05-21T03:24:40.066Z,15.20
2023-05-21T03:27:07.419Z,15.20
2023-05-21T03:29:34.662Z,15.20
2023-05-21T03:32:02.541Z,15.20
2023-05-21T03:34:30.316Z,15.12
2023-05-21T03:36:57.025Z,15.10
2023-05-21T03:39:24.023Z,15.10
2023-05-21T03:41:50.809Z,15.10
2023-05-21T03:44:26.003Z,15.10
2023-05-21T03:46:56.977Z,15.10
2023-05-21T03:49:29.681Z,15.10
2023-05-21T03:51:56.983Z,15.08
2023-05-21T03:54:23.879Z,15.08
2023-05-21T03:56:52.261Z,15.02
2023-05-21T03:59:19.117Z,15.00
2023-05-21T04:01:45.922Z,15.00
2023-05-21T04:04:14.398Z,15.00
2023-05-21T04:06:44.506Z,15.00
2023-05-21T04:09:11.843Z,15.00
2023-05-21T04:11:38.658Z,15.00
2023-05-21T04:14:05.349Z,15.00
2023-05-21T04:16:34.822Z,15.00
2023-05-21T04:19:01.804Z,15.00
2023-05-21T04:21:29.590Z,15.00
2023-05-21T04:23:57.602Z,15.00
2023-05-21T04:26:33.988Z,15.06
2023-05-21T04:29:03.729Z,15.10
2023-05-21T04:31:32.282Z,15.10
2023-05-21T04:34:00.368Z,15.20
2023-05-21T04:36:29.114Z,15.20
2023-05-21T04:38:56.174Z,15.24
2023-05-21T04:41:22.929Z,15.30
2023-05-21T04:43:55.013Z,15.36
2023-05-21T04:46:27.044Z,15.40
2023-05-21T04:48:58.142Z,15.42
2023-05-21T04:51:24.951Z,15.50
2023-05-21T04:53:52.007Z,15.56
2023-05-21T04:56:18.813Z,15.60
2023-05-21T04:58:48.085Z,15.70
2023-05-21T05:01:15.772Z,15.72
2023-05-21T05:03:42.499Z,15.80
2023-05-21T05:06:09.186Z,15.80
2023-05-21T05:08:36.248Z,15.90
2023-05-21T05:11:03.329Z,15.98
2023-05-21T05:13:30.068Z,16.00
2023-05-21T05:15:57.573Z,16.10
2023-05-21T05:18:24.295Z,16.18
2023-05-21T05:20:51.033Z,16.20
2023-05-21T05:23:17.719Z,16.30
2023-05-21T05:25:44.594Z,16.36
2023-05-21T05:28:11.349Z,16.40
2023-05-21T05:30:38.172Z,16.50
2023-05-21T05:33:21.368Z,16.60
2023-05-21T05:35:48.109Z,16.64
2023-05-21T05:38:15.148Z,16.72
2023-05-21T05:40:41.902Z,16.80
2023-05-21T05:43:08.826Z,16.80
2023-05-21T05:45:35.779Z,16.80
2023-05-21T05:48:05.172Z,16.96
2023-05-21T05:50:32.035Z,17.08
2023-05-21T05:52:58.742Z,17.20
2023-05-21T05:55:27.015Z,17.30
2023-05-21T05:57:53.892Z,17.40
2023-05-21T06:00:20.674Z,17.50
2023-05-21T06:02:48.555Z,17.70
2023-05-21T06:05:15.489Z,17.90
2023-05-21T06:07:42.603Z,18.02
2023-05-21T06:10:09.884Z,18.18
2023-05-21T06:12:36.773Z,18.30
2023-05-21T06:15:04.963Z,18.50
2023-05-21T06:17:31.910Z,18.60
2023-05-21T06:19:59.063Z,18.80
2023-05-21T06:22:25.904Z,19.10
2023-05-21T06:24:53.387Z,19.42
2023-05-21T06:27:20.639Z,19.80
2023-05-21T06:29:48.070Z,20.20
2023-05-21T06:32:14.797Z,20.50
2023-05-21T06:34:41.622Z,20.90
2023-05-21T06:37:08.267Z,21.30
2023-05-21T06:39:35.064Z,21.76
2023-05-21T06:42:01.916Z,22.28
2023-05-21T06:44:51.359Z,22.60
2023-05-21T06:47:28.167Z,22.84
2023-05-21T06:49:55.435Z,23.22
2023-05-21T06:52:22.082Z,23.62
2023-05-21T06:54:49.190Z,24.16
2023-05-21T06:57:16.248Z,24.86
2023-05-21T06:59:43.078Z,25.54
2023-05-21T07:02:10.017Z,25.94
2023-05-21T07:04:36.926Z,26.20
2023-05-21T07:07:06.414Z,26.40
2023-05-21T07:09:33.082Z,26.70
2023-05-21T07:11:59.717Z,26.80
2023-05-21T07:14:27.027Z,26.84
2023-05-21T07:16:53.761Z,26.42
2023-05-21T07:19:20.525Z,26.00
2023-05-21T07:21:49.822Z,26.00
2023-05-21T07:24:16.766Z,26.10
2023-05-21T07:26:43.372Z,26.24
2023-05-21T07:29:10.517Z,26.52
2023-05-21T07:31:37.815Z,26.90
2023-05-21T07:34:05.719Z,26.90
2023-05-21T07:36:33.708Z,26.70
2023-05-21T07:39:01.082Z,27.12
2023-05-21T07:41:28.159Z,27.60
2023-05-21T07:43:55.560Z,27.90
2023-05-21T07:46:22.647Z,27.98
2023-05-21T07:48:52.583Z,28.00
2023-05-21T07:51:19.252Z,28.16
2023-05-21T07:53:45.942Z,28.20
2023-05-21T07:56:13.562Z,28.20
2023-05-21T07:58:40.712Z,28.20
2023-05-21T08:01:07.883Z,28.10
2023-05-21T08:03:34.715Z,28.10
2023-05-21T08:06:02.147Z,28.00
2023-05-21T08:08:28.832Z,27.76
2023-05-21T08:10:57.115Z,27.50
2023-05-21T08:13:25.898Z,27.30
2023-05-21T08:15:53.739Z,27.00
2023-05-21T08:18:24.467Z,26.90
2023-05-21T08:20:53.451Z,26.60
2023-05-21T08:23:21.167Z,26.30
2023-05-21T08:25:50.952Z,26.20
2023-05-21T08:28:17.632Z,26.10
2023-05-21T08:30:44.326Z,25.84
2023-05-21T08:33:11.156Z,25.50
2023-05-21T08:35:38.799Z,25.50
2023-05-21T08:38:27.511Z,25.32
2023-05-21T08:41:19.374Z,25.20
2023-05-21T08:43:49.831Z,25.20
2023-05-21T08:46:22.262Z,25.02
2023-05-21T08:48:54.898Z,24.90
2023-05-21T08:51:22.278Z,24.90
2023-05-21T08:53:51.271Z,24.90
2023-05-21T08:56:18.469Z,24.80
2023-05-21T08:58:53.962Z,24.86
2023-05-21T09:01:24.757Z,24.92
2023-05-21T09:04:20.263Z,25.10
2023-05-21T09:06:49.949Z,25.20
2023-05-21T09:09:41.687Z,25.32
2023-05-21T09:12:08.792Z,25.40
2023-05-21T09:14:52.133Z,25.50
2023-05-21T09:17:22.230Z,25.74
2023-05-21T09:20:17.520Z,25.98
2023-05-21T09:22:51.516Z,26.20
2023-05-21T09:25:23.735Z,26.40
2023-05-21T09:27:51.200Z,26.66
2023-05-21T09:30:20.858Z,26.90
2023-05-21T09:32:57.856Z,27.10
2023-05-21T09:35:24.886Z,27.10
2023-05-21T09:37:53.413Z,27.30
2023-05-21T09:40:22.312Z,27.40
2023-05-21T09:42:53.507Z,27.50
2023-05-21T09:45:21.433Z,27.50
2023-05-21T09:47:50.278Z,27.50
2023-05-21T09:50:22.085Z,27.54
2023-05-21T09:52:52.926Z,27.50
2023-05-21T09:55:23.483Z,27.40
2023-05-21T09:57:52.573Z,27.40
2023-05-21T10:00:22.305Z,27.50
2023-05-21T10:02:54.185Z,27.48
2023-05-21T10:05:26.097Z,27.30
2023-05-21T10:07:56.457Z,27.10
2023-05-21T10:10:23.891Z,27.10
2023-05-21T10:13:04.545Z,27.02
2023-05-21T10:15:38.733Z,27.00
2023-05-21T10:18:07.136Z,27.22
2023-05-21T10:20:36.793Z,27.50
2023-05-21T10:23:04.076Z,27.60
2023-05-21T10:25:32.447Z,27.70
2023-05-21T10:27:59.199Z,27.70
2023-05-21T10:30:25.828Z,27.70
2023-05-21T10:32:55.996Z,27.60
2023-05-21T10:35:23.440Z,27.70
2023-05-21T10:37:52.696Z,27.84
2023-05-21T10:40:19.891Z,28.00
2023-05-21T10:43:13.245Z,28.20
2023-05-21T10:46:14.445Z,28.44
2023-05-21T10:49:37.721Z,28.60
2023-05-21T10:52:45.116Z,28.58
2023-05-21T10:55:51.207Z,28.60
2023-05-21T10:58:32.748Z,28.52
2023-05-21T11:01:01.629Z,28.30
2023-05-21T11:03:29.814Z,28.06
2023-05-21T11:05:58.059Z,28.10
2023-05-21T11:08:31.886Z,28.10
2023-05-21T11:10:59.110Z,28.10
2023-05-21T11:13:27.507Z,28.10
2023-05-21T11:16:05.269Z,28.00
2023-05-21T11:18:38.480Z,28.00
2023-05-21T11:21:13.823Z,28.10
2023-05-21T11:24:01.784Z,28.00
2023-05-21T11:26:50.426Z,27.90
2023-05-21T11:29:17.358Z,27.90
2023-05-21T11:31:49.158Z,27.96
2023-05-21T11:34:32.268Z,28.00
2023-05-21T11:37:27.945Z,27.90
2023-05-21T11:39:55.867Z,28.00
2023-05-21T11:42:39.144Z,28.00
2023-05-21T11:45:06.631Z,28.00
2023-05-21T11:47:33.491Z,27.98
2023-05-21T11:50:03.251Z,28.00
2023-05-21T11:52:31.810Z,27.80
2023-05-21T11:54:59.796Z,27.82
2023-05-21T11:57:31.239Z,28.00
2023-05-21T12:00:01.192Z,28.02
2023-05-21T12:02:32.136Z,28.10
2023-05-21T12:05:00.598Z,28.20
2023-05-21T12:07:32.237Z,28.28
2023-05-21T12:10:00.412Z,28.30
2023-05-21T12:12:33.075Z,28.30
2023-05-21T12:15:10.380Z,28.30
2023-05-21T12:17:37.043Z,28.40
2023-05-21T12:20:07.475Z,28.44
2023-05-21T12:22:34.223Z,28.50
2023-05-21T12:25:01.299Z,28.40
2023-05-21T12:27:31.226Z,28.40
2023-05-21T12:29:58.871Z,28.40
2023-05-21T12:32:28.876Z,28.40
2023-05-21T12:34:56.389Z,28.40
2023-05-21T12:37:32.362Z,28.40
2023-05-21T12:40:01.886Z,28.40
2023-05-21T12:42:34.618Z,28.50
2023-05-21T12:45:06.942Z,28.54
2023-05-21T12:47:33.836Z,28.60
2023-05-21T12:50:02.167Z,28.60
2023-05-21T12:52:30.941Z,28.70
2023-05-21T12:54:58.543Z,28.70
2023-05-21T12:57:38.655Z,28.60
2023-05-21T13:00:07.393Z,28.70
2023-05-21T13:02:38.830Z,28.80
2023-05-21T13:05:11.280Z,28.80
2023-05-21T13:07:39.832Z,28.80
2023-05-21T13:10:07.705Z,29.00
2023-05-21T13:12:35.071Z,29.10
2023-05-21T13:15:04.335Z,29.20
2023-05-21T13:17:31.021Z,29.30
2023-05-21T13:20:09.638Z,29.30
2023-05-21T13:22:47.846Z,29.28
2023-05-21T13:25:21.171Z,29.44
2023-05-21T13:27:50.913Z,29.66
2023-05-21T13:30:18.935Z,29.80
2023-05-21T13:32:46.545Z,29.80
2023-05-21T13:35:16.613Z,29.70
2023-05-21T13:37:43.627Z,29.80
2023-05-21T13:40:12.239Z,29.80
2023-05-21T13:42:39.202Z,29.60
2023-05-21T13:45:11.559Z,29.60
2023-05-21T13:47:40.440Z,29.50
2023-05-21T13:50:09.721Z,29.40
2023-05-21T13:52:38.084Z,29.40
2023-05-21T13:55:05.483Z,29.40
2023-05-21T13:57:32.286Z,29.42
2023-05-21T13:59:59.614Z,29.36
2023-05-21T14:02:26.581Z,29.20
2023-05-21T14:04:53.862Z,29.10
2023-05-21T14:07:21.474Z,29.10
2023-05-21T14:09:48.251Z,29.00
2023-05-21T14:12:14.924Z,28.88
2023-05-21T14:14:42.055Z,28.80
2023-05-21T14:17:08.948Z,28.70
2023-05-21T14:19:35.801Z,28.70
2023-05-21T14:22:02.501Z,28.76
2023-05-21T14:24:29.173Z,28.80
2023-05-21T14:26:55.848Z,28.80
2023-05-21T14:29:22.914Z,28.80
2023-05-21T14:31:49.580Z,28.80
2023-05-21T14:34:16.186Z,28.78
2023-05-21T14:36:43.022Z,28.70
2023-05-21T14:39:09.631Z,28.70
2023-05-21T14:41:39.733Z,28.70
2023-05-21T14:44:06.549Z,28.50
2023-05-21T14:46:33.279Z,28.50
2023-05-21T14:49:00.723Z,28.50
2023-05-21T14:51:27.544Z,28.30
2023-05-21T14:53:54.351Z,28.20
2023-05-21T14:56:22.175Z,28.10
2023-05-21T14:58:49.352Z,28.10
2023-05-21T15:01:16.241Z,28.00
2023-05-21T15:03:42.967Z,28.00
2023-05-21T15:06:09.753Z,28.00
2023-05-21T15:08:36.421Z,27.90
2023-05-21T15:11:03.088Z,27.80
2023-05-21T15:13:29.658Z,27.70
2023-05-21T15:15:56.536Z,27.60
2023-05-21T15:18:24.716Z,27.50
2023-05-21T15:20:51.573Z,27.50
2023-05-21T15:23:18.482Z,27.40
2023-05-21T15:25:46.079Z,27.40
2023-05-21T15:28:13.079Z,27.46
2023-05-21T15:30:40.434Z,27.40
2023-05-21T15:33:07.109Z,27.30
2023-05-21T15:35:35.813Z,27.30
2023-05-21T15:38:02.978Z,27.26
2023-05-21T15:40:29.695Z,27.20
2023-05-21T15:42:56.410Z,27.00
2023-05-21T15:45:24.071Z,27.00
2023-05-21T15:47:50.995Z,27.00
2023-05-21T15:50:17.750Z,27.00
2023-05-21T15:52:44.392Z,26.90
2023-05-21T15:55:11.075Z,26.90
2023-05-21T15:57:37.832Z,26.90
2023-05-21T16:00:05.159Z,26.88
2023-05-21T16:02:35.611Z,26.80
2023-05-21T16:05:02.640Z,26.80
2023-05-21T16:07:29.443Z,26.70
2023-05-21T16:09:56.039Z,26.60
2023-05-21T16:12:22.815Z,26.60
2023-05-21T16:14:52.306Z,26.60
2023-05-21T16:17:22.185Z,26.60
2023-05-21T16:19:48.815Z,26.52
2023-05-21T16:22:15.602Z,26.50
2023-05-21T16:24:42.258Z,26.46
2023-05-21T16:27:08.957Z,26.40
2023-05-21T16:29:35.733Z,26.32
2023-05-21T16:32:02.949Z,26.30
2023-05-21T16:34:29.775Z,26.20
2023-05-21T16:36:56.673Z,26.20
2023-05-21T16:39:23.343Z,26.20
2023-05-21T16:41:50.055Z,26.10
2023-05-21T16:44:16.796Z,26.10
2023-05-21T16:46:43.421Z,26.02
2023-05-21T16:49:10.121Z,26.00
2023-05-21T16:51:36.817Z,25.90
2023-05-21T16:54:04.840Z,25.90
2023-05-21T16:56:31.660Z,25.80
2023-05-21T16:58:58.454Z,25.80
2023-05-21T17:01:25.483Z,25.70
2023-05-21T17:03:53.135Z,25.70
2023-05-21T17:06:20.021Z,25.70
2023-05-21T17:08:47.267Z,25.66
2023-05-21T17:11:14.092Z,25.60
2023-05-21T17:13:41.124Z,25.60
2023-05-21T17:16:07.844Z,25.50
2023-05-21T17:18:34.547Z,25.50
2023-05-21T17:21:01.124Z,25.42
2023-05-21T17:23:27.743Z,25.40
2023-05-21T17:25:54.342Z,25.38
2023-05-21T17:28:21.001Z,25.30
2023-05-21T17:30:49.684Z,25.30
2023-05-21T17:33:16.954Z,25.26
2023-05-21T17:35:43.942Z,25.20
2023-05-21T17:38:10.696Z,25.16
2023-05-21T17:40:37.484Z,25.10
2023-05-21T17:43:05.035Z,25.00
2023-05-21T17:45:32.250Z,25.00
2023-05-21T17:48:00.342Z,24.90
2023-05-21T17:50:28.149Z,24.80
2023-05-21T17:52:54.953Z,24.80
2023-05-21T17:55:21.632Z,24.70
2023-05-21T17:57:48.321Z,24.64
2023-05-21T18:00:15.201Z,24.60
2023-05-21T18:02:41.830Z,24.50
2023-05-21T18:05:08.601Z,24.50
2023-05-21T18:07:35.816Z,24.40
2023-05-21T18:10:02.409Z,24.30
2023-05-21T18:12:29.055Z,24.20
2023-05-21T18:14:55.733Z,24.20
2023-05-21T18:17:22.442Z,24.10
2023-05-21T18:19:50.909Z,24.10
2023-05-21T18:22:17.658Z,24.00
2023-05-21T18:24:44.393Z,23.90
2023-05-21T18:27:12.379Z,23.82
2023-05-21T18:29:39.092Z,23.80
2023-05-21T18:32:06.369Z,23.70
2023-05-21T18:34:33.184Z,23.60
2023-05-21T18:37:00.463Z,23.50
2023-05-21T18:39:28.063Z,23.50
2023-05-21T18:42:08.871Z,23.40
2023-05-21T18:44:39.940Z,23.30
2023-05-21T18:47:08.023Z,23.28
2023-05-21T18:49:36.127Z,23.20
2023-05-21T18:52:07.757Z,23.10
2023-05-21T18:54:34.426Z,23.00
2023-05-21T18:57:01.117Z,22.98
2023-05-21T18:59:28.795Z,22.90
2023-05-21T19:01:55.689Z,22.80
2023-05-21T19:04:22.676Z,22.72
2023-05-21T19:06:49.408Z,22.70
2023-05-21T19:09:16.859Z,22.60
2023-05-21T19:11:43.551Z,22.54
2023-05-21T19:14:10.237Z,22.50
2023-05-21T19:16:37.040Z,22.46
2023-05-21T19:19:04.457Z,22.40
2023-05-21T19:21:31.533Z,22.30
2023-05-21T19:23:58.920Z,22.30
2023-05-21T19:26:25.627Z,22.20
2023-05-21T19:28:55.493Z,22.16
2023-05-21T19:31:23.230Z,22.10
2023-05-21T19:33:50.647Z,22.02
2023-05-21T19:36:18.494Z,22.00
2023-05-21T19:38:49.546Z,21.90
2023-05-21T19:41:17.616Z,21.90
2023-05-21T19:43:45.458Z,21.80
2023-05-21T19:46:12.216Z,21.80
2023-05-21T19:48:38.903Z,21.70
2023-05-21T19:51:05.720Z,21.70
2023-05-21T19:53:32.282Z,21.60
2023-05-21T19:55:59.035Z,21.50
2023-05-21T19:58:29.430Z,21.50
2023-05-21T20:00:59.336Z,21.40
2023-05-21T20:03:26.725Z,21.40
2023-05-21T20:05:54.595Z,21.30
2023-05-21T20:08:21.749Z,21.30
2023-05-21T20:10:51.452Z,21.20
2023-05-21T20:13:19.667Z,21.20
2023-05-21T20:15:48.092Z,21.10
2023-05-21T20:18:15.500Z,21.10
2023-05-21T20:20:43.149Z,21.06
2023-05-21T20:23:10.033Z,21.00
2023-05-21T20:25:36.773Z,21.00
2023-05-21T20:28:05.108Z,20.90
2023-05-21T20:30:52.423Z,20.90
2023-05-21T20:33:20.352Z,20.80
2023-05-21T20:35:47.103Z,20.80
2023-05-21T20:38:16.063Z,20.80
2023-05-21T20:40:44.188Z,20.70
2023-05-21T20:43:12.128Z,20.70
2023-05-21T20:45:42.019Z,20.60
2023-05-21T20:48:09.947Z,20.60
2023-05-21T20:50:37.272Z,20.60
2023-05-21T20:53:04.377Z,20.50
2023-05-21T20:55:35.010Z,20.50
2023-05-21T20:58:03.680Z,20.42
2023-05-21T21:00:31.839Z,20.40
2023-05-21T21:03:01.300Z,20.38
2023-05-21T21:05:28.371Z,20.30
2023-05-21T21:07:55.933Z,20.30
2023-05-21T21:10:22.875Z,20.26
2023-05-21T21:12:49.640Z,20.20
2023-05-21T21:15:16.554Z,20.20
2023-05-21T21:17:43.257Z,20.14
2023-05-21T21:20:11.591Z,20.10
2023-05-21T21:22:38.411Z,20.10
2023-05-21T21:25:05.852Z,20.10
2023-05-21T21:27:32.529Z,20.08
2023-05-21T21:29:59.128Z,20.00
2023-05-21T21:32:26.385Z,20.00
2023-05-21T21:34:53.036Z,19.98
2023-05-21T21:37:19.683Z,19.90
2023-05-21T21:39:46.323Z,19.90
2023-05-21T21:42:13.072Z,19.84
2023-05-21T21:44:39.759Z,19.80
2023-05-21T21:47:06.594Z,19.80
2023-05-21T21:49:33.215Z,19.70
2023-05-21T21:51:59.863Z,19.70
2023-05-21T21:54:27.766Z,19.66
2023-05-21T21:56:54.550Z,19.60
2023-05-21T21:59:22.307Z,19.60
2023-05-21T22:01:49.353Z,19.60
2023-05-21T22:04:16.077Z,19.50
2023-05-21T22:06:45.405Z,19.50
2023-05-21T22:09:13.614Z,19.50
2023-05-21T22:11:40.430Z,19.46
2023-05-21T22:14:07.822Z,19.40
2023-05-21T22:16:34.516Z,19.40
2023-05-21T22:19:01.429Z,19.40
2023-05-21T22:21:29.224Z,19.30
2023-05-21T22:23:56.212Z,19.30
2023-05-21T22:26:23.301Z,19.28
2023-05-21T22:28:51.437Z,19.20
2023-05-21T22:31:18.076Z,19.14
2023-05-21T22:33:44.769Z,19.10
2023-05-21T22:36:11.609Z,19.06
2023-05-21T22:38:38.416Z,19.00
2023-05-21T22:41:05.184Z,19.00
2023-05-21T22:43:34.800Z,19.00
2023-05-21T22:46:01.928Z,18.90
2023-05-21T22:48:31.686Z,18.90
2023-05-21T22:50:58.449Z,18.90
2023-05-21T22:53:25.792Z,18.80
2023-05-21T22:55:52.621Z,18.80
2023-05-21T22:58:19.368Z,18.80
2023-05-21T23:00:48.064Z,18.70
2023-05-21T23:03:14.951Z,18.70
2023-05-21T23:05:41.813Z,18.70
2023-05-21T23:08:08.464Z,18.62
2023-05-21T23:10:35.810Z,18.60
2023-05-21T23:13:02.564Z,18.60
2023-05-21T23:15:32.387Z,18.50
2023-05-21T23:18:00.432Z,18.50
2023-05-21T23:20:27.861Z,18.50
2023-05-21T23:22:54.529Z,18.40
2023-05-21T23:25:21.159Z,18.40
2023-05-21T23:27:47.813Z,18.30
2023-05-21T23:30:14.684Z,18.30
2023-05-21T23:32:41.405Z,18.20
2023-05-21T23:35:09.841Z,18.20
2023-05-21T23:37:36.474Z,18.20
2023-05-21T23:40:03.877Z,18.14
2023-05-21T23:42:30.549Z,18.10
2023-05-21T23:44:57.173Z,18.10
2023-05-21T23:47:23.827Z,18.10
2023-05-21T23:49:50.448Z,18.10
2023-05-21T23:52:18.232Z,18.06
2023-05-21T23:54:44.908Z,18.00
2023-05-21T23:57:13.290Z,18.00
2023-05-21T23:59:40.099Z,18.00
